sensor_id;sensor_type;location;lat;lon;timestamp;P1;durP1;ratioP1;P2;durP2;ratioP2
8074;SDS011;4080;42.676;23.372;2022-12-08T00:01:20;30.73;;;16.70;;
8074;SDS011;4080;42.676;23.372;2022-12-08T00:03:48;27.80;;;17.10;;
8074;SDS011;4080;42.676;23.372;2022-12-08T00:06:20;26.47;;;16.93;;
8074;SDS011;4080;42.676;23.372;2022-12-08T00:09:10;25.50;;;16.03;;
8074;SDS011;4080;42.676;23.372;2022-12-08T00:11:48;26.87;;;17.57;;
8074;SDS011;4080;42.676;23.372;2022-12-08T00:14:16;30.97;;;17.47;;
8074;SDS011;4080;42.676;23.372;2022-12-08T00:16:43;27.80;;;16.53;;
8074;SDS011;4080;42.676;23.372;2022-12-08T00:19:09;27.10;;;16.67;;
8074;SDS011;4080;42.676;23.372;2022-12-08T00:21:36;27.93;;;17.80;;
8074;SDS011;4080;42.676;23.372;2022-12-08T00:24:03;28.20;;;17.13;;
8074;SDS011;4080;42.676;23.372;2022-12-08T00:26:31;27.70;;;15.63;;
8074;SDS011;4080;42.676;23.372;2022-12-08T00:28:58;28.57;;;17.90;;
8074;SDS011;4080;42.676;23.372;2022-12-08T00:31:25;27.90;;;17.17;;
8074;SDS011;4080;42.676;23.372;2022-12-08T00:33:51;28.90;;;18.03;;
8074;SDS011;4080;42.676;23.372;2022-12-08T00:36:18;29.87;;;18.53;;
8074;SDS011;4080;42.676;23.372;2022-12-08T00:38:45;31.03;;;17.97;;
8074;SDS011;4080;42.676;23.372;2022-12-08T00:41:13;32.77;;;19.27;;
8074;SDS011;4080;42.676;23.372;2022-12-08T00:43:42;35.63;;;21.57;;
8074;SDS011;4080;42.676;23.372;2022-12-08T00:46:09;43.07;;;25.13;;
8074;SDS011;4080;42.676;23.372;2022-12-08T00:48:37;34.53;;;21.27;;
8074;SDS011;4080;42.676;23.372;2022-12-08T00:51:03;38.20;;;21.43;;
8074;SDS011;4080;42.676;23.372;2022-12-08T00:53:30;29.13;;;19.03;;
8074;SDS011;4080;42.676;23.372;2022-12-08T00:55:57;31.20;;;18.67;;
8074;SDS011;4080;42.676;23.372;2022-12-08T00:58:24;33.50;;;19.20;;
8074;SDS011;4080;42.676;23.372;2022-12-08T01:00:52;37.37;;;22.40;;
8074;SDS011;4080;42.676;23.372;2022-12-08T01:03:19;40.53;;;22.10;;
8074;SDS011;4080;42.676;23.372;2022-12-08T01:05:45;37.10;;;22.37;;
8074;SDS011;4080;42.676;23.372;2022-12-08T01:08:12;33.40;;;19.13;;
8074;SDS011;4080;42.676;23.372;2022-12-08T01:10:39;41.70;;;24.60;;
8074;SDS011;4080;42.676;23.372;2022-12-08T01:13:05;44.87;;;26.43;;
8074;SDS011;4080;42.676;23.372;2022-12-08T01:15:32;50.93;;;29.93;;
8074;SDS011;4080;42.676;23.372;2022-12-08T01:18:00;43.13;;;28.03;;
8074;SDS011;4080;42.676;23.372;2022-12-08T01:20:27;50.77;;;30.60;;
8074;SDS011;4080;42.676;23.372;2022-12-08T01:22:56;45.97;;;28.90;;
8074;SDS011;4080;42.676;23.372;2022-12-08T01:25:22;46.13;;;28.67;;
8074;SDS011;4080;42.676;23.372;2022-12-08T01:27:52;34.57;;;21.30;;
8074;SDS011;4080;42.676;23.372;2022-12-08T01:30:19;45.50;;;26.77;;
8074;SDS011;4080;42.676;23.372;2022-12-08T01:32:46;47.80;;;26.73;;
8074;SDS011;4080;42.676;23.372;2022-12-08T01:35:14;43.40;;;29.20;;
8074;SDS011;4080;42.676;23.372;2022-12-08T01:37:41;41.30;;;26.23;;
8074;SDS011;4080;42.676;23.372;2022-12-08T01:40:08;45.87;;;27.00;;
8074;SDS011;4080;42.676;23.372;2022-12-08T01:42:35;50.50;;;29.33;;
8074;SDS011;4080;42.676;23.372;2022-12-08T01:45:05;42.53;;;28.00;;
8074;SDS011;4080;42.676;23.372;2022-12-08T01:47:39;48.03;;;28.80;;
8074;SDS011;4080;42.676;23.372;2022-12-08T01:50:09;50.50;;;30.07;;
8074;SDS011;4080;42.676;23.372;2022-12-08T01:52:40;49.67;;;29.63;;
8074;SDS011;4080;42.676;23.372;2022-12-08T01:55:11;48.67;;;28.33;;
8074;SDS011;4080;42.676;23.372;2022-12-08T01:57:42;39.73;;;25.13;;
8074;SDS011;4080;42.676;23.372;2022-12-08T02:00:14;45.90;;;28.00;;
8074;SDS011;4080;42.676;23.372;2022-12-08T02:02:52;46.27;;;29.67;;
8074;SDS011;4080;42.676;23.372;2022-12-08T02:05:22;47.27;;;26.73;;
8074;SDS011;4080;42.676;23.372;2022-12-08T02:07:54;43.40;;;25.80;;
8074;SDS011;4080;42.676;23.372;2022-12-08T02:10:23;37.67;;;23.23;;
8074;SDS011;4080;42.676;23.372;2022-12-08T02:12:53;43.50;;;23.97;;
8074;SDS011;4080;42.676;23.372;2022-12-08T02:15:26;39.97;;;24.97;;
8074;SDS011;4080;42.676;23.372;2022-12-08T02:18:01;36.17;;;23.10;;
8074;SDS011;4080;42.676;23.372;2022-12-08T02:20:40;35.67;;;21.47;;
8074;SDS011;4080;42.676;23.372;2022-12-08T02:23:19;31.67;;;20.33;;
8074;SDS011;4080;42.676;23.372;2022-12-08T02:26:23;34.17;;;20.37;;
8074;SDS011;4080;42.676;23.372;2022-12-08T02:29:17;33.90;;;21.70;;
8074;SDS011;4080;42.676;23.372;2022-12-08T02:32:05;36.87;;;22.47;;
8074;SDS011;4080;42.676;23.372;2022-12-08T02:34:53;36.77;;;20.93;;
8074;SDS011;4080;42.676;23.372;2022-12-08T02:37:27;33.27;;;20.23;;
8074;SDS011;4080;42.676;23.372;2022-12-08T02:40:02;36.17;;;20.77;;
8074;SDS011;4080;42.676;23.372;2022-12-08T02:42:36;35.37;;;21.70;;
8074;SDS011;4080;42.676;23.372;2022-12-08T02:45:08;35.47;;;21.10;;
8074;SDS011;4080;42.676;23.372;2022-12-08T02:47:39;31.27;;;19.20;;
8074;SDS011;4080;42.676;23.372;2022-12-08T02:50:09;39.07;;;21.87;;
8074;SDS011;4080;42.676;23.372;2022-12-08T02:52:40;37.13;;;22.50;;
8074;SDS011;4080;42.676;23.372;2022-12-08T02:55:11;32.47;;;18.57;;
8074;SDS011;4080;42.676;23.372;2022-12-08T02:57:57;31.10;;;17.53;;
8074;SDS011;4080;42.676;23.372;2022-12-08T03:00:41;32.33;;;20.10;;
8074;SDS011;4080;42.676;23.372;2022-12-08T03:03:22;35.50;;;21.40;;
8074;SDS011;4080;42.676;23.372;2022-12-08T03:06:03;29.67;;;19.07;;
8074;SDS011;4080;42.676;23.372;2022-12-08T03:08:34;29.80;;;19.20;;
8074;SDS011;4080;42.676;23.372;2022-12-08T03:11:09;31.17;;;19.70;;
8074;SDS011;4080;42.676;23.372;2022-12-08T03:13:41;32.50;;;20.53;;
8074;SDS011;4080;42.676;23.372;2022-12-08T03:16:11;30.37;;;20.77;;
8074;SDS011;4080;42.676;23.372;2022-12-08T03:18:42;29.53;;;20.33;;
8074;SDS011;4080;42.676;23.372;2022-12-08T03:21:15;33.40;;;20.23;;
8074;SDS011;4080;42.676;23.372;2022-12-08T03:23:45;31.20;;;20.47;;
8074;SDS011;4080;42.676;23.372;2022-12-08T03:26:16;36.73;;;20.10;;
8074;SDS011;4080;42.676;23.372;2022-12-08T03:28:47;35.87;;;21.13;;
8074;SDS011;4080;42.676;23.372;2022-12-08T03:31:14;38.80;;;21.03;;
8074;SDS011;4080;42.676;23.372;2022-12-08T03:33:44;34.83;;;20.63;;
8074;SDS011;4080;42.676;23.372;2022-12-08T03:36:18;31.87;;;20.27;;
8074;SDS011;4080;42.676;23.372;2022-12-08T03:38:47;35.47;;;20.83;;
8074;SDS011;4080;42.676;23.372;2022-12-08T03:41:17;36.20;;;18.73;;
8074;SDS011;4080;42.676;23.372;2022-12-08T03:43:45;30.67;;;19.20;;
8074;SDS011;4080;42.676;23.372;2022-12-08T03:46:12;34.10;;;19.93;;
8074;SDS011;4080;42.676;23.372;2022-12-08T03:48:39;37.40;;;21.37;;
8074;SDS011;4080;42.676;23.372;2022-12-08T03:51:06;33.77;;;21.23;;
8074;SDS011;4080;42.676;23.372;2022-12-08T03:53:34;35.77;;;21.10;;
8074;SDS011;4080;42.676;23.372;2022-12-08T03:56:02;36.70;;;21.20;;
8074;SDS011;4080;42.676;23.372;2022-12-08T03:58:30;34.67;;;21.33;;
8074;SDS011;4080;42.676;23.372;2022-12-08T04:00:57;38.73;;;22.40;;
8074;SDS011;4080;42.676;23.372;2022-12-08T04:03:23;36.00;;;23.23;;
8074;SDS011;4080;42.676;23.372;2022-12-08T04:05:50;37.60;;;22.87;;
8074;SDS011;4080;42.676;23.372;2022-12-08T04:08:17;37.63;;;22.83;;
8074;SDS011;4080;42.676;23.372;2022-12-08T04:10:45;35.17;;;21.87;;
8074;SDS011;4080;42.676;23.372;2022-12-08T04:13:12;35.07;;;22.90;;
8074;SDS011;4080;42.676;23.372;2022-12-08T04:15:38;34.53;;;22.73;;
8074;SDS011;4080;42.676;23.372;2022-12-08T04:18:09;35.67;;;22.47;;
8074;SDS011;4080;42.676;23.372;2022-12-08T04:20:37;37.27;;;22.93;;
8074;SDS011;4080;42.676;23.372;2022-12-08T04:23:04;37.93;;;21.57;;
8074;SDS011;4080;42.676;23.372;2022-12-08T04:25:30;34.83;;;22.77;;
8074;SDS011;4080;42.676;23.372;2022-12-08T04:27:58;36.87;;;22.60;;
8074;SDS011;4080;42.676;23.372;2022-12-08T04:30:25;38.63;;;23.67;;
8074;SDS011;4080;42.676;23.372;2022-12-08T04:32:52;36.47;;;23.37;;
8074;SDS011;4080;42.676;23.372;2022-12-08T04:35:19;39.07;;;22.70;;
8074;SDS011;4080;42.676;23.372;2022-12-08T04:37:45;38.40;;;23.50;;
8074;SDS011;4080;42.676;23.372;2022-12-08T04:40:12;35.87;;;23.10;;
8074;SDS011;4080;42.676;23.372;2022-12-08T04:42:40;37.30;;;23.53;;
8074;SDS011;4080;42.676;23.372;2022-12-08T04:45:08;46.93;;;24.33;;
8074;SDS011;4080;42.676;23.372;2022-12-08T04:47:36;49.53;;;28.60;;
8074;SDS011;4080;42.676;23.372;2022-12-08T04:50:04;42.30;;;26.67;;
8074;SDS011;4080;42.676;23.372;2022-12-08T04:52:33;41.17;;;27.13;;
8074;SDS011;4080;42.676;23.372;2022-12-08T04:54:59;45.07;;;29.83;;
8074;SDS011;4080;42.676;23.372;2022-12-08T04:57:26;45.73;;;28.50;;
8074;SDS011;4080;42.676;23.372;2022-12-08T04:59:53;55.30;;;33.63;;
8074;SDS011;4080;42.676;23.372;2022-12-08T05:02:21;56.17;;;33.47;;
8074;SDS011;4080;42.676;23.372;2022-12-08T05:04:48;66.53;;;38.57;;
8074;SDS011;4080;42.676;23.372;2022-12-08T05:07:15;60.50;;;37.80;;
8074;SDS011;4080;42.676;23.372;2022-12-08T05:09:42;99.00;;;60.20;;
8074;SDS011;4080;42.676;23.372;2022-12-08T05:12:08;104.87;;;62.13;;
8074;SDS011;4080;42.676;23.372;2022-12-08T05:14:35;102.67;;;61.63;;
8074;SDS011;4080;42.676;23.372;2022-12-08T05:17:02;81.63;;;50.27;;
8074;SDS011;4080;42.676;23.372;2022-12-08T05:19:30;79.63;;;49.77;;
8074;SDS011;4080;42.676;23.372;2022-12-08T05:21:57;77.60;;;45.37;;
8074;SDS011;4080;42.676;23.372;2022-12-08T05:24:24;72.17;;;42.63;;
8074;SDS011;4080;42.676;23.372;2022-12-08T05:26:50;77.97;;;46.00;;
8074;SDS011;4080;42.676;23.372;2022-12-08T05:29:17;82.17;;;45.33;;
8074;SDS011;4080;42.676;23.372;2022-12-08T05:31:44;75.70;;;43.33;;
8074;SDS011;4080;42.676;23.372;2022-12-08T05:34:11;80.30;;;46.20;;
8074;SDS011;4080;42.676;23.372;2022-12-08T05:36:39;64.70;;;38.20;;
8074;SDS011;4080;42.676;23.372;2022-12-08T05:39:05;59.23;;;36.23;;
8074;SDS011;4080;42.676;23.372;2022-12-08T05:41:32;65.27;;;37.70;;
8074;SDS011;4080;42.676;23.372;2022-12-08T05:43:59;60.60;;;35.67;;
8074;SDS011;4080;42.676;23.372;2022-12-08T05:46:26;54.20;;;31.43;;
8074;SDS011;4080;42.676;23.372;2022-12-08T05:48:52;58.43;;;35.47;;
8074;SDS011;4080;42.676;23.372;2022-12-08T05:51:20;76.60;;;39.00;;
8074;SDS011;4080;42.676;23.372;2022-12-08T05:53:50;68.10;;;38.27;;
8074;SDS011;4080;42.676;23.372;2022-12-08T05:56:18;66.30;;;37.03;;
8074;SDS011;4080;42.676;23.372;2022-12-08T05:58:45;71.57;;;37.93;;
8074;SDS011;4080;42.676;23.372;2022-12-08T06:01:20;63.63;;;34.73;;
8074;SDS011;4080;42.676;23.372;2022-12-08T06:03:48;57.63;;;33.57;;
8074;SDS011;4080;42.676;23.372;2022-12-08T06:06:15;59.50;;;34.03;;
8074;SDS011;4080;42.676;23.372;2022-12-08T06:08:41;103.47;;;48.37;;
8074;SDS011;4080;42.676;23.372;2022-12-08T06:11:15;77.17;;;44.23;;
8074;SDS011;4080;42.676;23.372;2022-12-08T06:13:43;60.27;;;35.80;;
8074;SDS011;4080;42.676;23.372;2022-12-08T06:16:09;62.50;;;35.13;;
8074;SDS011;4080;42.676;23.372;2022-12-08T06:18:36;68.23;;;39.87;;
8074;SDS011;4080;42.676;23.372;2022-12-08T06:21:03;61.63;;;35.10;;
8074;SDS011;4080;42.676;23.372;2022-12-08T06:23:30;61.93;;;33.47;;
8074;SDS011;4080;42.676;23.372;2022-12-08T06:25:59;60.63;;;32.17;;
8074;SDS011;4080;42.676;23.372;2022-12-08T06:28:28;62.07;;;35.53;;
8074;SDS011;4080;42.676;23.372;2022-12-08T06:30:54;68.17;;;36.27;;
8074;SDS011;4080;42.676;23.372;2022-12-08T06:33:21;65.23;;;34.27;;
8074;SDS011;4080;42.676;23.372;2022-12-08T06:35:48;64.27;;;34.93;;
8074;SDS011;4080;42.676;23.372;2022-12-08T06:38:15;60.03;;;36.40;;
8074;SDS011;4080;42.676;23.372;2022-12-08T06:40:42;68.70;;;35.43;;
8074;SDS011;4080;42.676;23.372;2022-12-08T06:43:08;71.27;;;35.80;;
8074;SDS011;4080;42.676;23.372;2022-12-08T06:45:39;67.80;;;35.60;;
8074;SDS011;4080;42.676;23.372;2022-12-08T06:48:06;69.70;;;35.90;;
8074;SDS011;4080;42.676;23.372;2022-12-08T06:50:32;65.50;;;36.83;;
8074;SDS011;4080;42.676;23.372;2022-12-08T06:52:59;66.97;;;35.47;;
8074;SDS011;4080;42.676;23.372;2022-12-08T06:55:26;60.00;;;34.33;;
8074;SDS011;4080;42.676;23.372;2022-12-08T06:57:54;54.10;;;34.13;;
8074;SDS011;4080;42.676;23.372;2022-12-08T07:00:20;59.87;;;33.73;;
8074;SDS011;4080;42.676;23.372;2022-12-08T07:02:51;58.23;;;35.27;;
8074;SDS011;4080;42.676;23.372;2022-12-08T07:05:18;53.50;;;33.07;;
8074;SDS011;4080;42.676;23.372;2022-12-08T07:07:45;43.40;;;25.63;;
8074;SDS011;4080;42.676;23.372;2022-12-08T07:10:11;49.30;;;27.70;;
8074;SDS011;4080;42.676;23.372;2022-12-08T07:12:38;40.77;;;27.13;;
8074;SDS011;4080;42.676;23.372;2022-12-08T07:15:05;49.60;;;30.20;;
8074;SDS011;4080;42.676;23.372;2022-12-08T07:17:33;45.60;;;28.83;;
8074;SDS011;4080;42.676;23.372;2022-12-08T07:20:01;56.80;;;34.77;;
8074;SDS011;4080;42.676;23.372;2022-12-08T07:22:28;55.90;;;32.77;;
8074;SDS011;4080;42.676;23.372;2022-12-08T07:24:54;56.90;;;36.90;;
8074;SDS011;4080;42.676;23.372;2022-12-08T07:27:21;66.37;;;41.43;;
8074;SDS011;4080;42.676;23.372;2022-12-08T07:29:48;67.77;;;40.60;;
8074;SDS011;4080;42.676;23.372;2022-12-08T07:32:15;63.83;;;40.27;;
8074;SDS011;4080;42.676;23.372;2022-12-08T07:34:41;58.27;;;39.30;;
8074;SDS011;4080;42.676;23.372;2022-12-08T07:37:09;70.00;;;41.57;;
8074;SDS011;4080;42.676;23.372;2022-12-08T07:39:36;62.67;;;36.10;;
8074;SDS011;4080;42.676;23.372;2022-12-08T07:42:03;54.17;;;34.93;;
8074;SDS011;4080;42.676;23.372;2022-12-08T07:44:29;60.13;;;36.90;;
8074;SDS011;4080;42.676;23.372;2022-12-08T07:46:56;38.20;;;23.57;;
8074;SDS011;4080;42.676;23.372;2022-12-08T07:49:23;61.07;;;35.00;;
8074;SDS011;4080;42.676;23.372;2022-12-08T07:51:50;57.90;;;36.80;;
8074;SDS011;4080;42.676;23.372;2022-12-08T07:54:18;61.10;;;36.30;;
8074;SDS011;4080;42.676;23.372;2022-12-08T07:56:44;62.03;;;36.63;;
8074;SDS011;4080;42.676;23.372;2022-12-08T07:59:11;66.13;;;41.50;;
8074;SDS011;4080;42.676;23.372;2022-12-08T08:01:38;70.17;;;40.13;;
8074;SDS011;4080;42.676;23.372;2022-12-08T08:04:05;66.27;;;39.07;;
8074;SDS011;4080;42.676;23.372;2022-12-08T08:06:32;68.23;;;42.37;;
8074;SDS011;4080;42.676;23.372;2022-12-08T08:09:00;71.53;;;45.43;;
8074;SDS011;4080;42.676;23.372;2022-12-08T08:11:28;58.87;;;36.67;;
8074;SDS011;4080;42.676;23.372;2022-12-08T08:13:55;75.03;;;44.10;;
8074;SDS011;4080;42.676;23.372;2022-12-08T08:16:22;64.87;;;41.07;;
8074;SDS011;4080;42.676;23.372;2022-12-08T08:18:49;75.20;;;46.33;;
8074;SDS011;4080;42.676;23.372;2022-12-08T08:21:16;75.67;;;45.53;;
8074;SDS011;4080;42.676;23.372;2022-12-08T08:23:44;69.33;;;43.53;;
8074;SDS011;4080;42.676;23.372;2022-12-08T08:26:11;68.80;;;41.70;;
8074;SDS011;4080;42.676;23.372;2022-12-08T08:28:40;62.27;;;41.70;;
8074;SDS011;4080;42.676;23.372;2022-12-08T08:31:07;63.37;;;39.33;;
8074;SDS011;4080;42.676;23.372;2022-12-08T08:33:34;61.60;;;37.17;;
8074;SDS011;4080;42.676;23.372;2022-12-08T08:36:01;59.93;;;33.97;;
8074;SDS011;4080;42.676;23.372;2022-12-08T08:38:32;51.03;;;31.37;;
8074;SDS011;4080;42.676;23.372;2022-12-08T08:40:58;64.13;;;38.27;;
8074;SDS011;4080;42.676;23.372;2022-12-08T08:43:27;52.73;;;32.43;;
8074;SDS011;4080;42.676;23.372;2022-12-08T08:45:58;61.03;;;33.77;;
8074;SDS011;4080;42.676;23.372;2022-12-08T08:48:25;52.60;;;33.03;;
8074;SDS011;4080;42.676;23.372;2022-12-08T08:50:53;140.33;;;97.60;;
8074;SDS011;4080;42.676;23.372;2022-12-08T08:53:20;45.90;;;30.27;;
8074;SDS011;4080;42.676;23.372;2022-12-08T08:55:47;45.03;;;28.77;;
8074;SDS011;4080;42.676;23.372;2022-12-08T08:58:14;43.33;;;27.83;;
8074;SDS011;4080;42.676;23.372;2022-12-08T09:00:41;46.13;;;26.53;;
8074;SDS011;4080;42.676;23.372;2022-12-08T09:03:09;39.27;;;25.27;;
8074;SDS011;4080;42.676;23.372;2022-12-08T09:05:36;41.60;;;26.43;;
8074;SDS011;4080;42.676;23.372;2022-12-08T09:08:03;39.27;;;26.43;;
8074;SDS011;4080;42.676;23.372;2022-12-08T09:10:30;38.00;;;26.10;;
8074;SDS011;4080;42.676;23.372;2022-12-08T09:12:57;38.60;;;25.33;;
8074;SDS011;4080;42.676;23.372;2022-12-08T09:15:23;26.13;;;17.43;;
8074;SDS011;4080;42.676;23.372;2022-12-08T09:17:50;25.90;;;17.90;;
8074;SDS011;4080;42.676;23.372;2022-12-08T09:20:18;31.23;;;20.63;;
8074;SDS011;4080;42.676;23.372;2022-12-08T09:23:02;26.93;;;18.17;;
8074;SDS011;4080;42.676;23.372;2022-12-08T09:25:29;29.50;;;22.03;;
8074;SDS011;4080;42.676;23.372;2022-12-08T09:27:56;37.03;;;21.17;;
8074;SDS011;4080;42.676;23.372;2022-12-08T09:30:22;27.97;;;21.77;;
8074;SDS011;4080;42.676;23.372;2022-12-08T09:32:49;25.70;;;20.47;;
8074;SDS011;4080;42.676;23.372;2022-12-08T09:35:20;31.07;;;19.90;;
8074;SDS011;4080;42.676;23.372;2022-12-08T09:37:46;26.00;;;19.93;;
8074;SDS011;4080;42.676;23.372;2022-12-08T09:40:14;29.60;;;19.40;;
8074;SDS011;4080;42.676;23.372;2022-12-08T09:42:46;29.83;;;19.20;;
8074;SDS011;4080;42.676;23.372;2022-12-08T09:45:17;30.50;;;19.97;;
8074;SDS011;4080;42.676;23.372;2022-12-08T09:47:44;28.13;;;21.47;;
8074;SDS011;4080;42.676;23.372;2022-12-08T09:50:21;35.83;;;26.60;;
8074;SDS011;4080;42.676;23.372;2022-12-08T09:52:58;34.37;;;24.23;;
8074;SDS011;4080;42.676;23.372;2022-12-08T09:55:33;28.27;;;21.03;;
8074;SDS011;4080;42.676;23.372;2022-12-08T09:58:08;38.47;;;23.23;;
8074;SDS011;4080;42.676;23.372;2022-12-08T10:00:41;36.10;;;25.87;;
8074;SDS011;4080;42.676;23.372;2022-12-08T10:03:08;36.43;;;24.47;;
8074;SDS011;4080;42.676;23.372;2022-12-08T10:05:40;44.33;;;27.90;;
8074;SDS011;4080;42.676;23.372;2022-12-08T10:08:13;39.47;;;28.07;;
8074;SDS011;4080;42.676;23.372;2022-12-08T10:10:46;34.43;;;26.70;;
8074;SDS011;4080;42.676;23.372;2022-12-08T10:13:20;36.27;;;25.70;;
8074;SDS011;4080;42.676;23.372;2022-12-08T10:15:56;34.00;;;23.70;;
8074;SDS011;4080;42.676;23.372;2022-12-08T10:18:32;35.03;;;22.33;;
8074;SDS011;4080;42.676;23.372;2022-12-08T10:21:09;30.73;;;19.27;;
8074;SDS011;4080;42.676;23.372;2022-12-08T10:23:41;26.63;;;18.90;;
8074;SDS011;4080;42.676;23.372;2022-12-08T10:26:12;25.70;;;19.07;;
8074;SDS011;4080;42.676;23.372;2022-12-08T10:28:40;28.10;;;18.83;;
8074;SDS011;4080;42.676;23.372;2022-12-08T10:31:12;23.40;;;17.57;;
8074;SDS011;4080;42.676;23.372;2022-12-08T10:33:40;23.20;;;17.33;;
8074;SDS011;4080;42.676;23.372;2022-12-08T10:36:09;25.67;;;18.53;;
8074;SDS011;4080;42.676;23.372;2022-12-08T10:38:37;29.30;;;16.33;;
8074;SDS011;4080;42.676;23.372;2022-12-08T10:41:06;24.50;;;15.13;;
8074;SDS011;4080;42.676;23.372;2022-12-08T10:43:40;22.40;;;14.23;;
8074;SDS011;4080;42.676;23.372;2022-12-08T10:46:09;20.53;;;12.83;;
8074;SDS011;4080;42.676;23.372;2022-12-08T10:48:46;22.57;;;14.57;;
8074;SDS011;4080;42.676;23.372;2022-12-08T10:51:22;19.80;;;14.63;;
8074;SDS011;4080;42.676;23.372;2022-12-08T10:53:52;22.03;;;14.77;;
8074;SDS011;4080;42.676;23.372;2022-12-08T10:56:18;20.53;;;14.27;;
8074;SDS011;4080;42.676;23.372;2022-12-08T10:59:03;18.50;;;14.27;;
8074;SDS011;4080;42.676;23.372;2022-12-08T11:01:33;20.17;;;13.93;;
8074;SDS011;4080;42.676;23.372;2022-12-08T11:04:04;21.37;;;14.47;;
8074;SDS011;4080;42.676;23.372;2022-12-08T11:06:38;18.43;;;13.07;;
8074;SDS011;4080;42.676;23.372;2022-12-08T11:09:08;19.53;;;13.80;;
8074;SDS011;4080;42.676;23.372;2022-12-08T11:11:48;15.63;;;12.47;;
8074;SDS011;4080;42.676;23.372;2022-12-08T11:14:17;19.77;;;13.33;;
8074;SDS011;4080;42.676;23.372;2022-12-08T11:16:48;21.17;;;13.43;;
8074;SDS011;4080;42.676;23.372;2022-12-08T11:19:18;20.10;;;12.47;;
8074;SDS011;4080;42.676;23.372;2022-12-08T11:21:47;17.60;;;12.03;;
8074;SDS011;4080;42.676;23.372;2022-12-08T11:24:21;26.33;;;15.13;;
8074;SDS011;4080;42.676;23.372;2022-12-08T11:26:50;27.57;;;17.33;;
8074;SDS011;4080;42.676;23.372;2022-12-08T11:29:19;22.90;;;15.13;;
8074;SDS011;4080;42.676;23.372;2022-12-08T11:31:47;22.37;;;14.33;;
8074;SDS011;4080;42.676;23.372;2022-12-08T11:34:18;22.27;;;13.87;;
8074;SDS011;4080;42.676;23.372;2022-12-08T11:36:58;21.00;;;14.73;;
8074;SDS011;4080;42.676;23.372;2022-12-08T11:39:26;21.07;;;12.60;;
8074;SDS011;4080;42.676;23.372;2022-12-08T11:41:55;19.63;;;13.10;;
8074;SDS011;4080;42.676;23.372;2022-12-08T11:44:27;18.00;;;12.90;;
8074;SDS011;4080;42.676;23.372;2022-12-08T11:46:59;22.10;;;14.20;;
8074;SDS011;4080;42.676;23.372;2022-12-08T11:49:32;18.50;;;13.20;;
8074;SDS011;4080;42.676;23.372;2022-12-08T11:52:04;19.70;;;12.40;;
8074;SDS011;4080;42.676;23.372;2022-12-08T11:54:40;21.17;;;11.00;;
8074;SDS011;4080;42.676;23.372;2022-12-08T11:57:11;17.13;;;10.83;;
8074;SDS011;4080;42.676;23.372;2022-12-08T11:59:41;15.37;;;10.57;;
8074;SDS011;4080;42.676;23.372;2022-12-08T12:02:11;21.47;;;12.00;;
8074;SDS011;4080;42.676;23.372;2022-12-08T12:04:41;16.27;;;11.00;;
8074;SDS011;4080;42.676;23.372;2022-12-08T12:07:34;24.53;;;17.93;;
8074;SDS011;4080;42.676;23.372;2022-12-08T12:10:23;17.33;;;9.87;;
8074;SDS011;4080;42.676;23.372;2022-12-08T12:13:07;13.90;;;9.63;;
8074;SDS011;4080;42.676;23.372;2022-12-08T12:15:52;12.23;;;8.63;;
8074;SDS011;4080;42.676;23.372;2022-12-08T12:18:38;10.33;;;8.03;;
8074;SDS011;4080;42.676;23.372;2022-12-08T12:21:11;13.73;;;7.83;;
8074;SDS011;4080;42.676;23.372;2022-12-08T12:23:45;11.50;;;8.27;;
8074;SDS011;4080;42.676;23.372;2022-12-08T12:26:17;11.43;;;8.77;;
8074;SDS011;4080;42.676;23.372;2022-12-08T12:28:47;80.13;;;44.70;;
8074;SDS011;4080;42.676;23.372;2022-12-08T12:31:20;21.50;;;9.67;;
8074;SDS011;4080;42.676;23.372;2022-12-08T12:33:50;12.77;;;9.03;;
8074;SDS011;4080;42.676;23.372;2022-12-08T12:36:20;12.37;;;8.90;;
8074;SDS011;4080;42.676;23.372;2022-12-08T12:38:49;14.23;;;9.03;;
8074;SDS011;4080;42.676;23.372;2022-12-08T12:41:28;14.67;;;9.67;;
8074;SDS011;4080;42.676;23.372;2022-12-08T12:44:07;20.17;;;9.87;;
8074;SDS011;4080;42.676;23.372;2022-12-08T12:46:55;16.83;;;9.27;;
8074;SDS011;4080;42.676;23.372;2022-12-08T12:52:40;13.60;;;9.20;;
8074;SDS011;4080;42.676;23.372;2022-12-08T13:04:27;14.40;;;11.03;;
8074;SDS011;4080;42.676;23.372;2022-12-08T13:07:02;13.60;;;10.03;;
8074;SDS011;4080;42.676;23.372;2022-12-08T13:09:31;16.37;;;10.40;;
8074;SDS011;4080;42.676;23.372;2022-12-08T13:12:06;17.90;;;11.93;;
8074;SDS011;4080;42.676;23.372;2022-12-08T13:14:36;21.67;;;11.80;;
8074;SDS011;4080;42.676;23.372;2022-12-08T13:17:11;23.63;;;10.97;;
8074;SDS011;4080;42.676;23.372;2022-12-08T13:19:39;21.50;;;11.67;;
8074;SDS011;4080;42.676;23.372;2022-12-08T13:28:24;14.07;;;9.77;;
8074;SDS011;4080;42.676;23.372;2022-12-08T13:30:54;14.90;;;10.87;;
8074;SDS011;4080;42.676;23.372;2022-12-08T13:33:23;15.20;;;11.20;;
8074;SDS011;4080;42.676;23.372;2022-12-08T13:35:55;18.20;;;11.37;;
8074;SDS011;4080;42.676;23.372;2022-12-08T13:38:30;14.97;;;11.00;;
8074;SDS011;4080;42.676;23.372;2022-12-08T13:41:00;17.00;;;11.00;;
8074;SDS011;4080;42.676;23.372;2022-12-08T13:43:33;20.47;;;13.53;;
8074;SDS011;4080;42.676;23.372;2022-12-08T13:46:05;23.30;;;13.53;;
8074;SDS011;4080;42.676;23.372;2022-12-08T13:48:38;22.77;;;14.20;;
8074;SDS011;4080;42.676;23.372;2022-12-08T13:51:12;21.17;;;12.43;;
8074;SDS011;4080;42.676;23.372;2022-12-08T13:53:43;21.10;;;12.77;;
8074;SDS011;4080;42.676;23.372;2022-12-08T13:56:18;22.50;;;15.13;;
8074;SDS011;4080;42.676;23.372;2022-12-08T13:58:47;25.30;;;16.37;;
8074;SDS011;4080;42.676;23.372;2022-12-08T14:01:15;24.63;;;15.47;;
8074;SDS011;4080;42.676;23.372;2022-12-08T14:03:46;29.13;;;19.33;;
8074;SDS011;4080;42.676;23.372;2022-12-08T14:06:17;24.00;;;15.27;;
8074;SDS011;4080;42.676;23.372;2022-12-08T14:08:44;25.03;;;14.07;;
8074;SDS011;4080;42.676;23.372;2022-12-08T14:11:19;26.67;;;15.13;;
8074;SDS011;4080;42.676;23.372;2022-12-08T14:13:59;28.03;;;14.07;;
8074;SDS011;4080;42.676;23.372;2022-12-08T14:16:29;23.33;;;14.87;;
8074;SDS011;4080;42.676;23.372;2022-12-08T14:19:05;28.57;;;15.63;;
8074;SDS011;4080;42.676;23.372;2022-12-08T14:21:44;25.27;;;16.90;;
8074;SDS011;4080;42.676;23.372;2022-12-08T14:24:12;27.53;;;16.20;;
8074;SDS011;4080;42.676;23.372;2022-12-08T14:26:41;24.87;;;14.83;;
8074;SDS011;4080;42.676;23.372;2022-12-08T14:29:14;23.30;;;15.27;;
8074;SDS011;4080;42.676;23.372;2022-12-08T14:32:02;28.53;;;15.87;;
8074;SDS011;4080;42.676;23.372;2022-12-08T14:34:29;29.27;;;16.60;;
8074;SDS011;4080;42.676;23.372;2022-12-08T14:37:09;22.93;;;16.80;;
8074;SDS011;4080;42.676;23.372;2022-12-08T14:39:40;24.63;;;16.50;;
8074;SDS011;4080;42.676;23.372;2022-12-08T14:42:11;33.17;;;21.60;;
8074;SDS011;4080;42.676;23.372;2022-12-08T14:44:45;35.43;;;21.90;;
8074;SDS011;4080;42.676;23.372;2022-12-08T14:47:17;34.53;;;20.90;;
8074;SDS011;4080;42.676;23.372;2022-12-08T14:49:45;29.50;;;20.00;;
8074;SDS011;4080;42.676;23.372;2022-12-08T14:52:13;36.03;;;19.80;;
8074;SDS011;4080;42.676;23.372;2022-12-08T14:54:40;34.17;;;20.17;;
8074;SDS011;4080;42.676;23.372;2022-12-08T14:57:10;35.53;;;21.80;;
8074;SDS011;4080;42.676;23.372;2022-12-08T14:59:39;33.80;;;20.10;;
8074;SDS011;4080;42.676;23.372;2022-12-08T15:02:11;28.83;;;18.13;;
8074;SDS011;4080;42.676;23.372;2022-12-08T15:04:53;34.93;;;19.07;;
8074;SDS011;4080;42.676;23.372;2022-12-08T15:07:23;34.87;;;20.33;;
8074;SDS011;4080;42.676;23.372;2022-12-08T15:10:05;39.37;;;22.67;;
8074;SDS011;4080;42.676;23.372;2022-12-08T15:12:35;40.10;;;23.60;;